Terminal Aerodrome Forecast
Issued by NWS Caribou, ME

Home | Current Version | Previous Version | Text Only | Print | Product List | Glossary On
Versions: 1 2 3 4 5 6 7 8 9 10 11 12 13 14
000
FTUS41 KCAR 221100 RRA
TAFBGR
TAF
KBGR 221151Z 2212/2312 00000KT P6SM SCT120
     FM221400 21008KT P6SM SCT120
     FM230400 20005KT 4SM BR SCT002=

USA.gov is the U.S. government's official web portal to all federal, state and local government web resources and services.